Aviation Digital Data Service (ADDS)

Output produced by METARs form (0537 UTC 16 February 2019)
found at http://www.aviationweather.gov/metar/data/
 
Forecast for: DAOO (ORAN/ES SENIA , DZ)
Text: TAF DAOO 160500Z 1606/1706 VRB02KT 8000 NSC
Forecast period: 0600 to 1200 UTC 16 February 2019
Forecast type: FROM: standard forecast or significant change
Winds: variable direction winds at 2 MPH (2 knots; 1.0 m/s)
Visibility: 5 miles (8 km)
Ceiling: unknown
Clouds: missing
Weather: no significant weather forecast for this period
Text: BECMG 1612/1615 08012KT CAVOK
Forecast period: 1200 UTC 16 February 2019 to 0600 UTC 17 February 2019
Forecast type: BECOMING: Conditions expected to become as follows by 1500 UTC 16 February 2019
Winds: from the E (80 degrees) at 14 MPH (12 knots; 6.2 m/s)
Visibility: 6 or more miles 10+ km)
Ceiling: unknown
Clouds: missing
Weather: NSW  (no significant weather)